createdAt,value
2022-09-24T00:01:59.073Z,4.85
2022-09-24T00:05:01.517Z,4.18
2022-09-24T00:08:03.602Z,4.37
2022-09-24T00:11:08.241Z,4.18
2022-09-24T00:14:10.395Z,4.05
2022-09-24T00:17:12.792Z,4.47
2022-09-24T00:20:15.121Z,4.18
2022-09-24T00:23:17.477Z,4.05
2022-09-24T00:26:39.022Z,3.47
2022-09-24T00:29:41.595Z,3.80
2022-09-24T00:32:43.676Z,4.20
2022-09-24T00:35:46.050Z,4.03
2022-09-24T00:38:51.032Z,4.60
2022-09-24T00:41:53.390Z,4.15
2022-09-24T00:44:55.937Z,4.07
2022-09-24T00:47:58.948Z,3.83
2022-09-24T00:51:02.762Z,4.37
2022-09-24T00:54:09.335Z,3.83
2022-09-24T00:57:12.175Z,3.90
2022-09-24T01:00:15.342Z,3.62
2022-09-24T01:03:23.931Z,2.90
2022-09-24T01:06:26.356Z,2.92
2022-09-24T01:09:28.738Z,2.80
2022-09-24T01:12:52.223Z,2.95
2022-09-24T01:16:03.855Z,3.70
2022-09-24T01:19:43.096Z,3.83
2022-09-24T01:23:03.775Z,3.55
2022-09-24T01:26:20.050Z,3.28
2022-09-24T01:29:47.035Z,2.95
2022-09-24T01:33:00.995Z,3.00
2022-09-24T01:36:08.322Z,3.40
2022-09-24T01:39:12.774Z,3.40
2022-09-24T01:42:16.390Z,2.95
2022-09-24T01:45:20.039Z,2.70
2022-09-24T01:48:23.199Z,3.00
2022-09-24T01:51:34.405Z,3.28
2022-09-24T01:54:42.499Z,3.28
2022-09-24T01:57:50.174Z,3.80
2022-09-24T02:01:02.243Z,3.17
2022-09-24T02:04:12.204Z,3.42
2022-09-24T02:07:22.010Z,2.72
2022-09-24T02:10:25.182Z,3.62
2022-09-24T02:13:37.068Z,3.30
2022-09-24T02:16:47.521Z,3.17
2022-09-24T02:19:50.208Z,3.83
2022-09-24T02:22:55.318Z,3.90
2022-09-24T02:26:04.191Z,3.45
2022-09-24T02:32:13.720Z,3.83
2022-09-24T02:35:16.587Z,3.42
2022-09-24T02:38:19.743Z,3.72
2022-09-24T02:41:24.259Z,3.53
2022-09-24T02:44:26.775Z,3.30
2022-09-24T02:47:29.256Z,3.25
2022-09-24T02:50:31.347Z,3.78
2022-09-24T02:53:33.735Z,3.40
2022-09-24T02:56:36.615Z,3.40
2022-09-24T02:59:39.338Z,3.30
2022-09-24T03:02:41.504Z,3.20
2022-09-24T03:05:44.408Z,2.85
2022-09-24T03:08:47.174Z,2.67
2022-09-24T03:11:50.145Z,2.87
2022-09-24T03:14:52.231Z,2.92
2022-09-24T03:17:54.619Z,3.30
2022-09-24T03:20:59.288Z,2.87
2022-09-24T03:24:02.018Z,3.35
2022-09-24T03:27:04.123Z,3.45
2022-09-24T03:30:25.703Z,3.05
2022-09-24T03:33:33.192Z,3.03
2022-09-24T03:36:35.563Z,2.60
2022-09-24T03:39:37.659Z,2.95
2022-09-24T03:42:40.990Z,3.17
2022-09-24T03:45:43.130Z,3.55
2022-09-24T03:48:47.204Z,3.25
2022-09-24T03:51:50.336Z,2.97
2022-09-24T03:54:52.698Z,3.33
2022-09-24T03:57:54.795Z,3.05
2022-09-24T04:00:58.115Z,2.83
2022-09-24T04:04:01.177Z,2.92
2022-09-24T04:07:03.955Z,3.08
2022-09-24T04:10:06.832Z,2.92
2022-09-24T04:13:09.039Z,3.50
2022-09-24T04:16:11.409Z,3.03
2022-09-24T04:19:16.009Z,3.28
2022-09-24T04:22:18.366Z,2.92
2022-09-24T04:25:22.744Z,2.87
2022-09-24T04:28:25.252Z,2.70
2022-09-24T04:31:27.389Z,2.78
2022-09-24T04:34:29.900Z,2.75
2022-09-24T04:37:32.002Z,3.12
2022-09-24T04:40:34.411Z,2.87
2022-09-24T04:43:37.027Z,2.80
2022-09-24T04:46:41.751Z,3.53
2022-09-24T04:49:45.776Z,3.80
2022-09-24T04:52:48.380Z,2.80
2022-09-24T04:55:50.517Z,3.40
2022-09-24T04:58:53.339Z,3.37
2022-09-24T05:01:55.505Z,2.85
2022-09-24T05:04:57.978Z,3.72
2022-09-24T05:08:01.510Z,3.53
2022-09-24T05:11:04.323Z,3.60
2022-09-24T05:14:06.941Z,2.90
2022-09-24T05:17:09.603Z,2.78
2022-09-24T05:20:12.122Z,3.45
2022-09-24T05:23:14.495Z,3.42
2022-09-24T05:26:35.001Z,3.85
2022-09-24T05:29:39.349Z,4.10
2022-09-24T05:32:42.109Z,3.97
2022-09-24T05:35:44.500Z,3.50
2022-09-24T05:38:46.610Z,3.80
2022-09-24T05:41:49.006Z,3.80
2022-09-24T05:44:52.426Z,4.53
2022-09-24T05:47:54.915Z,4.78
2022-09-24T05:50:57.022Z,4.75
2022-09-24T05:53:59.535Z,5.37
2022-09-24T05:57:01.600Z,4.72
2022-09-24T06:00:05.923Z,4.55
2022-09-24T06:03:19.107Z,4.60
2022-09-24T06:06:21.544Z,4.62
2022-09-24T06:09:23.632Z,4.82
2022-09-24T06:12:25.992Z,5.30
2022-09-24T06:15:28.134Z,5.50
2022-09-24T06:18:31.373Z,5.97
2022-09-24T06:21:33.531Z,6.03
2022-09-24T06:24:35.970Z,5.60
2022-09-24T06:27:38.041Z,5.97
2022-09-24T06:30:41.150Z,5.75
2022-09-24T06:33:43.303Z,5.70
2022-09-24T06:36:45.654Z,6.20
2022-09-24T06:39:47.815Z,5.62
2022-09-24T06:42:53.451Z,5.68
2022-09-24T06:45:56.805Z,6.45
2022-09-24T06:48:59.163Z,6.70
2022-09-24T06:52:01.958Z,6.43
2022-09-24T06:55:04.646Z,7.65
2022-09-24T06:58:09.621Z,7.32
2022-09-24T07:01:12.019Z,6.87
2022-09-24T07:04:16.570Z,8.27
2022-09-24T07:07:32.871Z,7.72
2022-09-24T07:10:34.978Z,7.87
2022-09-24T07:13:37.349Z,9.32
2022-09-24T07:16:39.577Z,9.13
2022-09-24T07:19:42.332Z,10.05
2022-09-24T07:22:44.446Z,9.55
2022-09-24T07:25:47.050Z,10.10
2022-09-24T07:28:49.678Z,10.10
2022-09-24T07:31:52.076Z,10.23
2022-09-24T07:34:55.133Z,11.43
2022-09-24T07:37:59.503Z,10.60
2022-09-24T07:41:03.774Z,11.57
2022-09-24T07:44:07.808Z,12.68
2022-09-24T07:47:14.803Z,13.23
2022-09-24T07:50:18.372Z,12.98
2022-09-24T07:53:21.879Z,13.30
2022-09-24T07:56:25.272Z,13.48
2022-09-24T07:59:27.443Z,12.35
2022-09-24T08:02:29.887Z,13.20
2022-09-24T08:05:33.161Z,12.65
2022-09-24T08:08:35.687Z,14.15
2022-09-24T08:11:39.220Z,12.25
2022-09-24T08:14:43.266Z,11.38
2022-09-24T08:17:45.691Z,11.52
2022-09-24T08:20:47.779Z,11.25
2022-09-24T08:23:50.226Z,10.27
2022-09-24T08:26:52.325Z,10.70
2022-09-24T08:29:56.342Z,10.20
2022-09-24T08:32:58.654Z,10.52
2022-09-24T08:36:02.500Z,8.93
2022-09-24T08:39:04.621Z,9.00
2022-09-24T08:42:13.264Z,8.90
2022-09-24T08:45:36.101Z,8.23
2022-09-24T08:48:42.269Z,8.07
2022-09-24T08:51:58.970Z,8.98
2022-09-24T08:55:07.156Z,8.48
2022-09-24T08:58:28.089Z,8.73
2022-09-24T09:01:53.637Z,9.25
2022-09-24T09:05:27.473Z,8.88
2022-09-24T09:09:06.738Z,9.20
2022-09-24T09:12:18.175Z,9.35
2022-09-24T09:15:28.403Z,7.57
2022-09-24T09:18:39.158Z,8.30
2022-09-24T09:21:53.602Z,7.62
2022-09-24T09:25:04.201Z,8.48
2022-09-24T09:28:15.427Z,8.57
2022-09-24T09:31:29.920Z,7.40
2022-09-24T09:34:51.712Z,7.30
2022-09-24T09:37:53.729Z,6.43
2022-09-24T09:41:25.414Z,6.28
2022-09-24T09:44:31.007Z,6.40
2022-09-24T09:47:56.133Z,5.62
2022-09-24T09:51:05.211Z,5.10
2022-09-24T09:54:07.937Z,4.43
2022-09-24T09:57:23.259Z,5.03
2022-09-24T10:00:32.765Z,4.25
2022-09-24T10:03:49.536Z,4.68
2022-09-24T10:06:51.655Z,4.00
2022-09-24T10:10:04.444Z,3.45
2022-09-24T10:13:12.953Z,3.55
2022-09-24T10:16:18.088Z,2.87
2022-09-24T10:19:23.441Z,2.92
2022-09-24T10:22:28.036Z,2.83
2022-09-24T10:25:32.171Z,2.75
2022-09-24T10:28:59.300Z,2.50
2022-09-24T10:32:03.109Z,2.50
2022-09-24T10:35:22.640Z,2.10
2022-09-24T10:38:25.092Z,2.67
2022-09-24T10:41:30.219Z,2.33
2022-09-24T10:44:38.433Z,2.17
2022-09-24T10:51:06.654Z,1.87
2022-09-24T10:54:34.317Z,1.83
2022-09-24T10:58:03.904Z,2.65
2022-09-24T11:01:08.983Z,2.62
2022-09-24T11:04:39.990Z,2.28
2022-09-24T11:08:06.767Z,2.10
2022-09-24T11:11:17.822Z,2.20
2022-09-24T11:14:29.233Z,2.17
2022-09-24T11:18:06.953Z,1.70
2022-09-24T11:21:18.135Z,1.92
2022-09-24T11:24:50.500Z,1.80
2022-09-24T11:28:17.087Z,2.03
2022-09-24T11:31:45.210Z,2.20
2022-09-24T11:35:13.391Z,1.70
2022-09-24T11:38:24.180Z,2.00
2022-09-24T11:42:05.806Z,2.17
2022-09-24T11:45:34.138Z,1.95
2022-09-24T11:48:54.559Z,1.77
2022-09-24T11:52:22.291Z,1.60
2022-09-24T11:55:39.505Z,1.48
2022-09-24T11:58:52.749Z,2.03
2022-09-24T12:02:05.388Z,1.90
2022-09-24T12:05:15.167Z,2.70
2022-09-24T12:08:29.186Z,2.12
2022-09-24T12:11:46.996Z,2.25
2022-09-24T12:14:59.296Z,2.40
2022-09-24T12:18:08.892Z,1.90
2022-09-24T12:21:15.501Z,2.05
2022-09-24T12:24:34.649Z,1.83
2022-09-24T12:27:38.254Z,2.12
2022-09-24T12:31:15.891Z,2.03
2022-09-24T12:34:38.073Z,2.20
2022-09-24T12:37:44.446Z,2.15
2022-09-24T12:41:05.412Z,2.25
2022-09-24T12:44:10.885Z,2.80
2022-09-24T12:47:20.534Z,2.08
2022-09-24T12:50:27.385Z,2.10
2022-09-24T12:53:43.160Z,2.10
2022-09-24T12:56:45.807Z,2.20
2022-09-24T12:59:49.403Z,2.05
2022-09-24T13:02:54.022Z,2.20
2022-09-24T13:06:00.008Z,2.00
2022-09-24T13:09:25.859Z,2.00
2022-09-24T13:12:33.287Z,2.08
2022-09-24T13:15:42.086Z,2.80
2022-09-24T13:18:55.088Z,1.98
2022-09-24T13:22:01.680Z,1.77
2022-09-24T13:25:09.922Z,2.20
2022-09-24T13:28:21.248Z,2.00
2022-09-24T13:31:29.214Z,1.73
2022-09-24T13:34:32.383Z,1.90
2022-09-24T13:37:43.675Z,2.05
2022-09-24T13:40:52.955Z,2.10
2022-09-24T13:43:58.389Z,2.37
2022-09-24T13:47:38.301Z,1.98
2022-09-24T13:50:48.800Z,1.83
2022-09-24T13:54:14.964Z,1.98
2022-09-24T13:57:28.704Z,2.10
2022-09-24T14:00:32.418Z,1.80
2022-09-24T14:03:37.080Z,1.95
2022-09-24T14:06:43.401Z,1.87
2022-09-24T14:09:47.710Z,1.60
2022-09-24T14:13:01.476Z,1.80
2022-09-24T14:16:10.029Z,2.20
2022-09-24T14:22:23.992Z,2.08
2022-09-24T14:25:31.841Z,2.80
2022-09-24T14:28:34.872Z,2.40
2022-09-24T14:31:48.932Z,2.35
2022-09-24T14:34:55.041Z,2.05
2022-09-24T14:38:08.743Z,2.67
2022-09-24T14:41:20.586Z,2.22
2022-09-24T14:44:28.049Z,2.40
2022-09-24T14:47:33.417Z,2.35
2022-09-24T14:50:40.599Z,2.15
2022-09-24T14:53:43.004Z,2.20
2022-09-24T14:56:45.344Z,2.55
2022-09-24T14:59:47.719Z,2.12
2022-09-24T15:03:03.596Z,2.30
2022-09-24T15:06:16.332Z,2.70
2022-09-24T15:09:31.828Z,2.97
2022-09-24T15:12:36.907Z,2.95
2022-09-24T15:15:39.997Z,2.40
2022-09-24T15:18:42.540Z,2.55
2022-09-24T15:21:45.258Z,2.75
2022-09-24T15:24:47.632Z,2.62
2022-09-24T15:27:52.706Z,2.65
2022-09-24T15:30:56.525Z,2.70
2022-09-24T15:33:58.879Z,2.58
2022-09-24T15:37:01.288Z,3.08
2022-09-24T15:40:20.727Z,2.45
2022-09-24T15:43:24.857Z,2.65
2022-09-24T15:46:27.221Z,2.83
2022-09-24T15:49:29.678Z,3.12
2022-09-24T15:52:33.290Z,2.83
2022-09-24T15:55:36.581Z,2.75
2022-09-24T15:58:38.787Z,3.00
2022-09-24T16:01:42.360Z,2.55
2022-09-24T16:04:44.881Z,3.15
2022-09-24T16:07:47.090Z,2.87
2022-09-24T16:10:50.216Z,2.92
2022-09-24T16:13:52.354Z,2.87
2022-09-24T16:16:55.748Z,3.62
2022-09-24T16:19:57.969Z,3.62
2022-09-24T16:23:00.505Z,3.62
2022-09-24T16:26:02.652Z,4.20
2022-09-24T16:29:06.345Z,3.95
2022-09-24T16:32:08.490Z,4.00
2022-09-24T16:35:11.208Z,4.07
2022-09-24T16:38:14.850Z,4.35
2022-09-24T16:41:19.022Z,4.40
2022-09-24T16:44:21.188Z,4.30
2022-09-24T16:47:24.423Z,4.20
2022-09-24T16:50:27.146Z,4.15
2022-09-24T16:53:29.605Z,4.05
2022-09-24T16:56:32.382Z,4.15
2022-09-24T16:59:34.792Z,4.47
2022-09-24T17:02:37.099Z,5.07
2022-09-24T17:05:42.368Z,4.90
2022-09-24T17:09:03.058Z,4.82
2022-09-24T17:12:05.689Z,4.90
2022-09-24T17:15:08.676Z,5.18
2022-09-24T17:18:11.060Z,4.62
2022-09-24T17:21:13.573Z,4.35
2022-09-24T17:24:21.506Z,5.10
2022-09-24T17:27:24.031Z,5.15
2022-09-24T17:30:28.613Z,5.07
2022-09-24T17:33:46.656Z,4.45
2022-09-24T17:36:49.049Z,5.23
2022-09-24T17:39:51.168Z,4.60
2022-09-24T17:42:53.620Z,5.03
2022-09-24T17:46:03.171Z,4.78
2022-09-24T17:49:06.084Z,4.65
2022-09-24T17:52:08.258Z,5.65
2022-09-24T17:55:10.725Z,4.65
2022-09-24T17:58:12.820Z,4.85
2022-09-24T18:01:21.526Z,5.32
2022-09-24T18:04:26.895Z,5.45
2022-09-24T18:07:29.558Z,5.75
2022-09-24T18:10:31.977Z,6.00
2022-09-24T18:13:35.009Z,6.75
2022-09-24T18:16:37.479Z,6.25
2022-09-24T18:19:39.552Z,6.45
2022-09-24T18:22:41.931Z,6.28
2022-09-24T18:25:44.015Z,6.37
2022-09-24T18:28:46.356Z,6.50
2022-09-24T18:31:49.277Z,6.00
2022-09-24T18:34:52.449Z,6.40
2022-09-24T18:37:54.551Z,5.95
2022-09-24T18:40:57.190Z,5.90
2022-09-24T18:43:59.757Z,6.62
2022-09-24T18:47:02.416Z,6.45
2022-09-24T18:50:04.883Z,5.70
2022-09-24T18:53:07.256Z,6.07
2022-09-24T18:56:11.447Z,6.15
2022-09-24T18:59:19.323Z,6.07
2022-09-24T19:02:25.156Z,6.37
2022-09-24T19:05:28.726Z,5.87
2022-09-24T19:08:32.151Z,6.10
2022-09-24T19:11:35.371Z,6.55
2022-09-24T19:14:37.915Z,6.10
2022-09-24T19:17:40.319Z,6.62
2022-09-24T19:20:52.344Z,5.87
2022-09-24T19:23:56.675Z,5.03
2022-09-24T19:26:58.798Z,5.82
2022-09-24T19:30:01.162Z,5.35
2022-09-24T19:33:03.267Z,5.05
2022-09-24T19:36:05.914Z,6.00
2022-09-24T19:39:12.556Z,4.62
2022-09-24T19:42:15.424Z,5.70
2022-09-24T19:45:17.526Z,5.00
2022-09-24T19:48:19.947Z,5.22
2022-09-24T19:51:23.157Z,5.18
2022-09-24T19:54:25.572Z,4.68
2022-09-24T19:57:27.893Z,5.00
2022-09-24T20:00:30.403Z,4.75
2022-09-24T20:03:34.492Z,5.37
2022-09-24T20:06:37.873Z,5.62
2022-09-24T20:09:40.298Z,4.90
2022-09-24T20:12:46.500Z,4.57
2022-09-24T20:15:58.371Z,4.87
2022-09-24T20:19:02.475Z,4.95
2022-09-24T20:22:07.516Z,5.70
2022-09-24T20:25:12.865Z,5.43
2022-09-24T20:28:16.387Z,5.25
2022-09-24T20:31:22.899Z,5.05
2022-09-24T20:34:28.857Z,5.18
2022-09-24T20:37:31.080Z,4.97
2022-09-24T20:40:36.521Z,5.80
2022-09-24T20:43:40.389Z,5.22
2022-09-24T20:46:42.807Z,5.32
2022-09-24T20:49:44.958Z,6.05
2022-09-24T20:52:47.362Z,6.00
2022-09-24T20:55:49.483Z,5.97
2022-09-24T20:58:53.092Z,6.97
2022-09-24T21:01:55.514Z,6.62
2022-09-24T21:04:57.968Z,6.47
2022-09-24T21:08:00.155Z,6.30
2022-09-24T21:11:08.495Z,6.93
2022-09-24T21:14:11.755Z,6.90
2022-09-24T21:17:14.640Z,7.47
2022-09-24T21:20:16.981Z,6.70
2022-09-24T21:23:19.621Z,7.30
2022-09-24T21:26:30.391Z,6.10
2022-09-24T21:29:32.779Z,7.03
2022-09-24T21:32:35.688Z,6.80
2022-09-24T21:35:38.075Z,7.37
2022-09-24T21:38:40.139Z,7.55
2022-09-24T21:41:43.643Z,7.20
2022-09-24T21:44:47.406Z,6.87
2022-09-24T21:47:51.624Z,7.18
2022-09-24T21:50:54.851Z,7.10
2022-09-24T21:54:03.337Z,7.50
2022-09-24T21:57:05.961Z,7.25
2022-09-24T22:00:10.864Z,7.32
2022-09-24T22:03:14.296Z,6.43
2022-09-24T22:06:16.429Z,6.97
2022-09-24T22:09:19.019Z,6.50
2022-09-24T22:12:21.520Z,6.95
2022-09-24T22:15:23.868Z,7.28
2022-09-24T22:18:30.067Z,7.20
2022-09-24T22:21:33.582Z,6.62
2022-09-24T22:24:36.492Z,6.90
2022-09-24T22:27:38.863Z,7.35
2022-09-24T22:30:45.112Z,7.28
2022-09-24T22:34:07.177Z,7.40
2022-09-24T22:37:09.306Z,7.55
2022-09-24T22:40:11.837Z,7.55
2022-09-24T22:43:14.068Z,6.55
2022-09-24T22:46:16.994Z,6.97
2022-09-24T22:49:19.672Z,6.87
2022-09-24T22:52:22.173Z,7.00
2022-09-24T22:55:24.321Z,7.40
2022-09-24T22:58:27.970Z,6.47
2022-09-24T23:01:33.382Z,6.75
2022-09-24T23:04:38.305Z,7.03
2022-09-24T23:07:41.128Z,7.18
2022-09-24T23:10:43.503Z,6.70
2022-09-24T23:13:52.978Z,6.72
2022-09-24T23:16:58.589Z,6.43
2022-09-24T23:20:00.958Z,6.87
2022-09-24T23:23:03.432Z,7.45
2022-09-24T23:26:16.267Z,7.93
2022-09-24T23:29:19.283Z,7.05
2022-09-24T23:32:21.647Z,7.00
2022-09-24T23:35:24.023Z,6.72
2022-09-24T23:38:26.402Z,6.78
2022-09-24T23:41:30.892Z,7.62
2022-09-24T23:44:34.406Z,6.32
2022-09-24T23:47:36.811Z,6.57
2022-09-24T23:50:39.640Z,6.43
2022-09-24T23:53:42.035Z,6.32
2022-09-24T23:56:44.136Z,6.70
2022-09-24T23:59:46.491Z,6.95
